Archival Weather

Chicago O'Hare International

Chicago, Illinois (KORD)

Report from: Thursday, June 23, 2022 12:51 PM CDT
Current time: Sunday, June 26, 2022 11:58 AM CDT

Current weather
Weather history
Weather forecast

Temperature28.9°C (84.0°F)
Heat index28.1°C (82.6°F)
Dew point10.6°C (51.1°F)
Winds 3 kts (1.5 m/s, 3.5 mph) East-Southeast (110°)
Visibility10 mi. (16.1 km)
Clouds Few clouds 25,000 ft. (7,620 m)
Altimeter30.05 in.Hg (1018 mB)
Relative humidity32 %
Density altitude1,633 ft. (498 m)
Sea-level pressure101.7 kPa (1017 mB, 30.04 in.Hg)
Max temp last 6 hours28.9°C (84.0°F)
Min temp last 6 hours20.6°C (69.1°F)
Remarks Automated weather observing station with precipitation discriminator
Pressure falling
Flight conditions Visual Meteorological Conditions
Raw dataKORD 231751Z 11003KT 10SM FEW250 29/11 A3005 RMK AO2 SLP171 T02890106 10289 20206 57008
An error has occurred. This application may no longer respond until reloaded. Reload 🗙